createdAt,value
2017-07-02T00:00:14.555Z,1009.2
2017-07-02T00:01:16.215Z,1009.2
2017-07-02T00:02:17.846Z,1009.2
2017-07-02T00:03:19.480Z,1009.2
2017-07-02T00:04:21.127Z,1009.2
2017-07-02T00:05:22.767Z,1009.2
2017-07-02T00:06:24.413Z,1009.2
2017-07-02T00:07:26.081Z,1009.2
2017-07-02T00:08:27.720Z,1009.2
2017-07-02T00:09:29.359Z,1009.3
2017-07-02T00:10:32.536Z,1009.3
2017-07-02T00:11:34.118Z,1009.3
2017-07-02T00:12:35.776Z,1009.3
2017-07-02T00:13:37.409Z,1009.3
2017-07-02T00:14:39.280Z,1009.3
2017-07-02T00:15:40.928Z,1009.3
2017-07-02T00:16:42.550Z,1009.2
2017-07-02T00:17:44.190Z,1009.3
2017-07-02T00:18:45.841Z,1009.3
2017-07-02T00:19:47.477Z,1009.3
2017-07-02T00:20:49.115Z,1009.3
2017-07-02T00:21:50.765Z,1009.3
2017-07-02T00:22:52.412Z,1009.2
2017-07-02T00:23:54.049Z,1009.3
2017-07-02T00:24:55.698Z,1009.3
2017-07-02T00:25:57.339Z,1009.3
2017-07-02T00:26:58.979Z,1009.3
2017-07-02T00:28:00.621Z,1009.3
2017-07-02T00:29:02.253Z,1009.3
2017-07-02T00:30:04.723Z,1009.3
2017-07-02T00:31:06.392Z,1009.3
2017-07-02T00:32:08.028Z,1009.3
2017-07-02T00:33:09.660Z,1009.3
2017-07-02T00:34:11.563Z,1009.3
2017-07-02T00:35:13.202Z,1009.3
2017-07-02T00:36:14.840Z,1009.3
2017-07-02T00:37:16.498Z,1009.3
2017-07-02T00:38:18.141Z,1009.3
2017-07-02T00:39:19.769Z,1009.3
2017-07-02T00:40:21.459Z,1009.4
2017-07-02T00:41:23.456Z,1009.4
2017-07-02T00:42:25.092Z,1009.4
2017-07-02T00:43:26.733Z,1009.4
2017-07-02T00:44:28.373Z,1009.4
2017-07-02T00:45:30.002Z,1009.4
2017-07-02T00:46:31.658Z,1009.4
2017-07-02T00:47:33.329Z,1009.4
2017-07-02T00:48:34.973Z,1009.4
2017-07-02T00:49:36.619Z,1009.4
2017-07-02T00:50:38.247Z,1009.4
2017-07-02T00:51:39.882Z,1009.4
2017-07-02T00:52:41.547Z,1009.5
2017-07-02T00:53:43.180Z,1009.4
2017-07-02T00:54:44.824Z,1009.4
2017-07-02T00:55:46.468Z,1009.4
2017-07-02T00:56:48.143Z,1009.4
2017-07-02T00:57:49.783Z,1009.4
2017-07-02T00:58:51.432Z,1009.4
2017-07-02T00:59:53.064Z,1009.4
2017-07-02T01:00:54.714Z,1009.4
2017-07-02T01:01:56.339Z,1009.4
2017-07-02T01:02:57.973Z,1009.4
2017-07-02T01:03:59.604Z,1009.4
2017-07-02T01:05:01.254Z,1009.3
2017-07-02T01:06:02.962Z,1009.4
2017-07-02T01:07:04.592Z,1009.3
2017-07-02T01:08:06.230Z,1009.3
2017-07-02T01:09:07.865Z,1009.3
2017-07-02T01:10:09.499Z,1009.3
2017-07-02T01:11:11.136Z,1009.3
2017-07-02T01:12:12.774Z,1009.3
2017-07-02T01:13:14.412Z,1009.3
2017-07-02T01:14:16.040Z,1009.3
2017-07-02T01:15:17.675Z,1009.3
2017-07-02T01:16:19.309Z,1009.3
2017-07-02T01:17:20.971Z,1009.3
2017-07-02T01:18:22.615Z,1009.3
2017-07-02T01:19:24.248Z,1009.3
2017-07-02T01:20:25.907Z,1009.3
2017-07-02T01:21:27.539Z,1009.3
2017-07-02T01:22:29.176Z,1009.3
2017-07-02T01:23:30.833Z,1009.3
2017-07-02T01:24:32.458Z,1009.4
2017-07-02T01:25:34.110Z,1009.4
2017-07-02T01:26:35.745Z,1009.4
2017-07-02T01:27:37.380Z,1009.4
2017-07-02T01:28:39.012Z,1009.4
2017-07-02T01:29:40.657Z,1009.4
2017-07-02T01:30:42.300Z,1009.4
2017-07-02T01:31:43.936Z,1009.4
2017-07-02T01:32:45.586Z,1009.4
2017-07-02T01:33:47.206Z,1009.4
2017-07-02T01:34:48.854Z,1009.4
2017-07-02T01:35:50.486Z,1009.4
2017-07-02T01:36:52.126Z,1009.4
2017-07-02T01:37:53.763Z,1009.4
2017-07-02T01:38:55.400Z,1009.4
2017-07-02T01:39:57.038Z,1009.4
2017-07-02T01:40:58.679Z,1009.4
2017-07-02T01:42:00.314Z,1009.4
2017-07-02T01:43:01.958Z,1009.4
2017-07-02T01:44:03.597Z,1009.4
2017-07-02T01:45:05.229Z,1009.5
2017-07-02T01:46:06.865Z,1009.5
2017-07-02T01:47:08.499Z,1009.4
2017-07-02T01:48:10.152Z,1009.4
2017-07-02T01:49:11.791Z,1009.4
2017-07-02T01:50:13.452Z,1009.4
2017-07-02T01:51:15.086Z,1009.5
2017-07-02T01:52:16.738Z,1009.5
2017-07-02T01:53:19.995Z,1009.4
2017-07-02T01:54:21.632Z,1009.4
2017-07-02T01:55:23.269Z,1009.4
2017-07-02T01:56:24.907Z,1009.4
2017-07-02T01:57:26.543Z,1009.5
2017-07-02T01:58:28.178Z,1009.5
2017-07-02T01:59:29.809Z,1009.5
2017-07-02T02:00:31.444Z,1009.5
2017-07-02T02:01:33.075Z,1009.5
2017-07-02T02:02:34.715Z,1009.5
2017-07-02T02:03:36.997Z,1009.5
2017-07-02T02:04:38.628Z,1009.5
2017-07-02T02:05:40.262Z,1009.5
2017-07-02T02:06:41.896Z,1009.5
2017-07-02T02:07:43.572Z,1009.5
2017-07-02T02:08:45.227Z,1009.4
2017-07-02T02:09:46.877Z,1009.4
2017-07-02T02:10:48.511Z,1009.5
2017-07-02T02:11:50.155Z,1009.4
2017-07-02T02:12:51.790Z,1009.4
2017-07-02T02:13:53.431Z,1009.4
2017-07-02T02:14:55.067Z,1009.4
2017-07-02T02:15:56.703Z,1009.4
2017-07-02T02:16:58.340Z,1009.4
2017-07-02T02:17:59.988Z,1009.4
2017-07-02T02:19:01.627Z,1009.4
2017-07-02T02:20:03.259Z,1009.4
2017-07-02T02:21:04.939Z,1009.4
2017-07-02T02:22:06.574Z,1009.4
2017-07-02T02:23:08.225Z,1009.3
2017-07-02T02:24:09.856Z,1009.4
2017-07-02T02:25:11.491Z,1009.4
2017-07-02T02:26:13.124Z,1009.4
2017-07-02T02:27:14.768Z,1009.4
2017-07-02T02:28:16.401Z,1009.4
2017-07-02T02:29:18.048Z,1009.4
2017-07-02T02:30:19.681Z,1009.4
2017-07-02T02:31:22.000Z,1009.4
2017-07-02T02:32:23.645Z,1009.4
2017-07-02T02:33:25.315Z,1009.4
2017-07-02T02:34:26.950Z,1009.4
2017-07-02T02:35:28.579Z,1009.4
2017-07-02T02:36:30.239Z,1009.4
2017-07-02T02:37:31.870Z,1009.4
2017-07-02T02:38:33.507Z,1009.4
2017-07-02T02:39:35.148Z,1009.4
2017-07-02T02:40:36.792Z,1009.4
2017-07-02T02:41:38.447Z,1009.4
2017-07-02T02:42:40.080Z,1009.4
2017-07-02T02:43:41.717Z,1009.4
2017-07-02T02:44:43.355Z,1009.4
2017-07-02T02:45:45.021Z,1009.4
2017-07-02T02:46:46.624Z,1009.3
2017-07-02T02:47:48.256Z,1009.4
2017-07-02T02:48:49.902Z,1009.4
2017-07-02T02:49:51.563Z,1009.3
2017-07-02T02:50:53.206Z,1009.4
2017-07-02T02:51:54.846Z,1009.3
2017-07-02T02:52:56.488Z,1009.4
2017-07-02T02:53:58.142Z,1009.3
2017-07-02T02:54:59.777Z,1009.3
2017-07-02T02:56:01.424Z,1009.4
2017-07-02T02:57:03.055Z,1009.3
2017-07-02T02:58:04.705Z,1009.3
2017-07-02T02:59:06.327Z,1009.4
2017-07-02T03:00:07.967Z,1009.3
2017-07-02T03:01:09.604Z,1009.4
2017-07-02T03:02:11.240Z,1009.4
2017-07-02T03:03:12.876Z,1009.4
2017-07-02T03:04:14.522Z,1009.4
2017-07-02T03:05:16.169Z,1009.4
2017-07-02T03:06:17.819Z,1009.4
2017-07-02T03:07:19.460Z,1009.4
2017-07-02T03:08:21.105Z,1009.4
2017-07-02T03:09:22.742Z,1009.4
2017-07-02T03:10:24.389Z,1009.4
2017-07-02T03:11:26.027Z,1009.4
2017-07-02T03:12:27.661Z,1009.5
2017-07-02T03:13:29.296Z,1009.5
2017-07-02T03:14:30.935Z,1009.5
2017-07-02T03:15:32.591Z,1009.5
2017-07-02T03:16:34.211Z,1009.5
2017-07-02T03:17:35.858Z,1009.5
2017-07-02T03:18:37.496Z,1009.6
2017-07-02T03:19:39.130Z,1009.5
2017-07-02T03:20:40.769Z,1009.5
2017-07-02T03:21:42.412Z,1009.5
2017-07-02T03:22:44.052Z,1009.6
2017-07-02T03:23:45.710Z,1009.6
2017-07-02T03:24:47.344Z,1009.5
2017-07-02T03:25:48.986Z,1009.6
2017-07-02T03:26:50.629Z,1009.6
2017-07-02T03:27:52.263Z,1009.6
2017-07-02T03:28:53.900Z,1009.5
2017-07-02T03:29:55.563Z,1009.5
2017-07-02T03:30:57.208Z,1009.5
2017-07-02T03:31:58.850Z,1009.5
2017-07-02T03:33:00.567Z,1009.5
2017-07-02T03:34:02.193Z,1009.6
2017-07-02T03:35:03.836Z,1009.5
2017-07-02T03:36:05.560Z,1009.5
2017-07-02T03:37:07.205Z,1009.5
2017-07-02T03:38:08.843Z,1009.5
2017-07-02T03:39:10.528Z,1009.6
2017-07-02T03:40:12.164Z,1009.6
2017-07-02T03:41:13.796Z,1009.6
2017-07-02T03:42:15.447Z,1009.6
2017-07-02T03:43:17.107Z,1009.6
2017-07-02T03:44:18.742Z,1009.6
2017-07-02T03:45:20.398Z,1009.6
2017-07-02T03:46:22.031Z,1009.6
2017-07-02T03:47:23.676Z,1009.6
2017-07-02T03:48:25.411Z,1009.6
2017-07-02T03:49:27.042Z,1009.6
2017-07-02T03:50:28.689Z,1009.6
2017-07-02T03:51:30.411Z,1009.6
2017-07-02T03:52:32.054Z,1009.6
2017-07-02T03:53:33.684Z,1009.6
2017-07-02T03:54:35.326Z,1009.7
2017-07-02T03:55:36.966Z,1009.6
2017-07-02T03:56:38.605Z,1009.6
2017-07-02T03:57:40.251Z,1009.6
2017-07-02T03:58:41.900Z,1009.6
2017-07-02T03:59:43.533Z,1009.6
2017-07-02T04:00:45.158Z,1009.6
2017-07-02T04:01:46.823Z,1009.6
2017-07-02T04:02:48.461Z,1009.6
2017-07-02T04:03:50.108Z,1009.6
2017-07-02T04:04:51.747Z,1009.6
2017-07-02T04:05:53.391Z,1009.6
2017-07-02T04:06:55.037Z,1009.6
2017-07-02T04:07:56.678Z,1009.6
2017-07-02T04:08:58.324Z,1009.6
2017-07-02T04:09:59.977Z,1009.6
2017-07-02T04:11:01.611Z,1009.6
2017-07-02T04:12:03.251Z,1009.6
2017-07-02T04:13:04.896Z,1009.6
2017-07-02T04:14:06.530Z,1009.6
2017-07-02T04:15:08.168Z,1009.6
2017-07-02T04:16:09.800Z,1009.7
2017-07-02T04:17:11.462Z,1009.7
2017-07-02T04:18:13.091Z,1009.7
2017-07-02T04:19:14.736Z,1009.7
2017-07-02T04:20:16.449Z,1009.7
2017-07-02T04:21:18.070Z,1009.7
2017-07-02T04:22:19.706Z,1009.7
2017-07-02T04:23:21.360Z,1009.7
2017-07-02T04:24:22.995Z,1009.7
2017-07-02T04:25:24.646Z,1009.7
2017-07-02T04:26:26.307Z,1009.7
2017-07-02T04:27:27.954Z,1009.7
2017-07-02T04:28:29.585Z,1009.7
2017-07-02T04:29:31.248Z,1009.6
2017-07-02T04:30:32.883Z,1009.6
2017-07-02T04:31:34.547Z,1009.6
2017-07-02T04:32:36.208Z,1009.6
2017-07-02T04:33:37.849Z,1009.7
2017-07-02T04:34:39.487Z,1009.6
2017-07-02T04:35:41.129Z,1009.6
2017-07-02T04:36:42.761Z,1009.6
2017-07-02T04:37:44.395Z,1009.6
2017-07-02T04:38:46.048Z,1009.6
2017-07-02T04:39:47.757Z,1009.7
2017-07-02T04:40:49.395Z,1009.7
2017-07-02T04:41:51.403Z,1009.6
2017-07-02T04:42:53.092Z,1009.6
2017-07-02T04:43:54.689Z,1009.6
2017-07-02T04:44:56.354Z,1009.7
2017-07-02T04:45:57.994Z,1009.7
2017-07-02T04:46:59.652Z,1009.7
2017-07-02T04:48:01.315Z,1009.7
2017-07-02T04:49:02.957Z,1009.6
2017-07-02T04:50:04.594Z,1009.7
2017-07-02T04:51:06.259Z,1009.7
2017-07-02T04:52:07.893Z,1009.7
2017-07-02T04:53:09.526Z,1009.7
2017-07-02T04:54:11.163Z,1009.7
2017-07-02T04:55:12.807Z,1009.7
2017-07-02T04:56:14.447Z,1009.7
2017-07-02T04:57:16.085Z,1009.8
2017-07-02T04:58:17.718Z,1009.7
2017-07-02T04:59:19.351Z,1009.8
2017-07-02T05:00:21.012Z,1009.8
2017-07-02T05:01:22.656Z,1009.8
2017-07-02T05:02:24.299Z,1009.8
2017-07-02T05:03:25.965Z,1009.8
2017-07-02T05:04:27.611Z,1009.8
2017-07-02T05:05:29.842Z,1009.8
2017-07-02T05:06:31.483Z,1009.7
2017-07-02T05:07:33.124Z,1009.7
2017-07-02T05:08:34.779Z,1009.7
2017-07-02T05:09:36.434Z,1009.7
2017-07-02T05:10:38.068Z,1009.7
2017-07-02T05:11:39.707Z,1009.7
2017-07-02T05:12:41.349Z,1009.7
2017-07-02T05:13:43.549Z,1009.7
2017-07-02T05:14:45.189Z,1009.7
2017-07-02T05:15:46.827Z,1009.7
2017-07-02T05:16:48.471Z,1009.8
2017-07-02T05:17:50.128Z,1009.7
2017-07-02T05:18:51.769Z,1009.8
2017-07-02T05:19:53.431Z,1009.8
2017-07-02T05:20:55.082Z,1009.8
2017-07-02T05:21:56.744Z,1009.8
2017-07-02T05:22:58.397Z,1009.8
2017-07-02T05:24:00.040Z,1009.8
2017-07-02T05:25:01.688Z,1009.8
2017-07-02T05:26:03.322Z,1009.8
2017-07-02T05:27:04.977Z,1009.8
2017-07-02T05:28:06.609Z,1009.8
2017-07-02T05:29:08.333Z,1009.8
2017-07-02T05:30:09.965Z,1009.8
2017-07-02T05:31:11.603Z,1009.8
2017-07-02T05:32:13.252Z,1009.8
2017-07-02T05:33:14.894Z,1009.8
2017-07-02T05:34:16.537Z,1009.8
2017-07-02T05:35:18.234Z,1009.8
2017-07-02T05:36:19.836Z,1009.9
2017-07-02T05:37:21.474Z,1009.8
2017-07-02T05:38:23.111Z,1009.8
2017-07-02T05:39:24.748Z,1009.8
2017-07-02T05:40:26.387Z,1009.7
2017-07-02T05:41:28.029Z,1009.7
2017-07-02T05:42:29.701Z,1009.7
2017-07-02T05:43:31.347Z,1009.7
2017-07-02T05:44:32.990Z,1009.7
2017-07-02T05:45:34.635Z,1009.7
2017-07-02T05:46:36.274Z,1009.6
2017-07-02T05:47:37.912Z,1009.6
2017-07-02T05:48:39.552Z,1009.6
2017-07-02T05:49:41.195Z,1009.6
2017-07-02T05:50:42.837Z,1009.7
2017-07-02T05:51:44.469Z,1009.6
2017-07-02T05:52:46.161Z,1009.6
2017-07-02T05:53:47.814Z,1009.6
2017-07-02T05:54:49.449Z,1009.6
2017-07-02T05:55:51.140Z,1009.6
2017-07-02T05:56:52.776Z,1009.7
2017-07-02T05:57:54.426Z,1009.7
2017-07-02T05:58:56.099Z,1009.7
2017-07-02T05:59:57.749Z,1009.7
2017-07-02T06:00:59.412Z,1009.7
2017-07-02T06:02:01.096Z,1009.8
2017-07-02T06:03:02.734Z,1009.8
2017-07-02T06:04:04.371Z,1009.8
2017-07-02T06:05:06.024Z,1009.8
2017-07-02T06:06:08.566Z,1009.7
2017-07-02T06:07:10.205Z,1009.8
2017-07-02T06:08:11.843Z,1009.8
2017-07-02T06:09:13.477Z,1009.8
2017-07-02T06:10:15.114Z,1009.8
2017-07-02T06:11:16.747Z,1009.8
2017-07-02T06:12:18.381Z,1009.8
2017-07-02T06:13:20.022Z,1009.9
2017-07-02T06:14:21.670Z,1009.8
2017-07-02T06:15:23.315Z,1009.9
2017-07-02T06:16:24.953Z,1009.9
2017-07-02T06:17:26.605Z,1009.9
2017-07-02T06:18:28.232Z,1009.9
2017-07-02T06:19:29.876Z,1009.9
2017-07-02T06:20:31.526Z,1009.9
2017-07-02T06:21:33.164Z,1009.9
2017-07-02T06:22:34.800Z,1009.9
2017-07-02T06:23:36.436Z,1009.9
2017-07-02T06:24:38.571Z,1009.9
2017-07-02T06:25:40.204Z,1009.9
2017-07-02T06:26:41.863Z,1009.9
2017-07-02T06:27:43.521Z,1010.0
2017-07-02T06:28:45.163Z,1009.9
2017-07-02T06:29:46.815Z,1009.9
2017-07-02T06:30:48.713Z,1009.9
2017-07-02T06:31:50.368Z,1009.9
2017-07-02T06:32:52.021Z,1009.9
2017-07-02T06:33:53.667Z,1009.9
2017-07-02T06:34:55.346Z,1010.0
2017-07-02T06:35:57.008Z,1010.0
2017-07-02T06:36:58.649Z,1009.9
2017-07-02T06:38:00.290Z,1009.9
2017-07-02T06:39:01.923Z,1010.0
2017-07-02T06:40:03.605Z,1010.0
2017-07-02T06:41:05.242Z,1010.0
2017-07-02T06:42:06.897Z,1009.9
2017-07-02T06:43:09.322Z,1010.0
2017-07-02T06:44:11.021Z,1010.0
2017-07-02T06:45:12.659Z,1010.0
2017-07-02T06:46:14.306Z,1010.0
2017-07-02T06:47:15.990Z,1009.9
2017-07-02T06:48:17.605Z,1009.9
2017-07-02T06:49:19.249Z,1010.0
2017-07-02T06:50:20.895Z,1009.9
2017-07-02T06:51:22.537Z,1009.9
2017-07-02T06:52:24.194Z,1009.9
2017-07-02T06:53:25.884Z,1009.9
2017-07-02T06:54:27.479Z,1010.0
2017-07-02T06:55:29.125Z,1010.0
2017-07-02T06:56:30.801Z,1010.0
2017-07-02T06:57:32.632Z,1010.0
2017-07-02T06:58:34.283Z,1010.0
2017-07-02T06:59:35.941Z,1010.0
2017-07-02T07:00:37.577Z,1010.0
2017-07-02T07:01:39.220Z,1010.0
2017-07-02T07:02:40.883Z,1010.0
2017-07-02T07:03:42.578Z,1010.0
2017-07-02T07:04:44.194Z,1010.0
2017-07-02T07:05:45.850Z,1010.0
2017-07-02T07:06:47.485Z,1010.0
2017-07-02T07:07:49.123Z,1010.0
2017-07-02T07:08:50.799Z,1010.0
2017-07-02T07:09:52.441Z,1010.0
2017-07-02T07:10:54.090Z,1010.0
2017-07-02T07:11:55.738Z,1010.0
2017-07-02T07:12:57.382Z,1010.0
2017-07-02T07:13:59.014Z,1010.0
2017-07-02T07:15:00.660Z,1010.1
2017-07-02T07:16:02.304Z,1010.0
2017-07-02T07:17:03.968Z,1010.0
2017-07-02T07:18:05.634Z,1010.0
2017-07-02T07:19:07.283Z,1010.0
2017-07-02T07:20:08.929Z,1010.1
2017-07-02T07:21:10.560Z,1010.1
2017-07-02T07:22:12.200Z,1010.1
2017-07-02T07:23:13.845Z,1010.2
2017-07-02T07:24:15.482Z,1010.1
2017-07-02T07:25:17.121Z,1010.1
2017-07-02T07:26:18.758Z,1010.2
2017-07-02T07:27:20.399Z,1010.2
2017-07-02T07:28:22.040Z,1010.2
2017-07-02T07:29:23.685Z,1010.1
2017-07-02T07:30:25.329Z,1010.2
2017-07-02T07:31:26.970Z,1010.2
2017-07-02T07:32:28.612Z,1010.2
2017-07-02T07:33:31.120Z,1010.2
2017-07-02T07:34:32.746Z,1010.2
2017-07-02T07:35:34.386Z,1010.3
2017-07-02T07:36:36.035Z,1010.2
2017-07-02T07:37:37.672Z,1010.2
2017-07-02T07:38:39.311Z,1010.2
2017-07-02T07:39:40.949Z,1010.2
2017-07-02T07:40:42.745Z,1010.2
2017-07-02T07:41:44.768Z,1010.2
2017-07-02T07:42:46.827Z,1010.2
2017-07-02T07:43:48.603Z,1010.2
2017-07-02T07:44:50.260Z,1010.2
2017-07-02T07:45:51.907Z,1010.2
2017-07-02T07:46:53.541Z,1010.2
2017-07-02T07:47:55.198Z,1010.2
2017-07-02T07:48:56.839Z,1010.3
2017-07-02T07:49:58.476Z,1010.2
2017-07-02T07:51:00.114Z,1010.2
2017-07-02T07:52:01.759Z,1010.2
2017-07-02T07:53:03.397Z,1010.2
2017-07-02T07:54:05.045Z,1010.2
2017-07-02T07:55:06.694Z,1010.3
2017-07-02T07:56:08.356Z,1010.2
2017-07-02T07:57:10.010Z,1010.2
2017-07-02T07:58:11.717Z,1010.2
2017-07-02T07:59:13.427Z,1010.3
2017-07-02T08:00:15.082Z,1010.3
2017-07-02T08:01:16.777Z,1010.3
2017-07-02T08:02:18.418Z,1010.3
2017-07-02T08:03:20.064Z,1010.3
2017-07-02T08:04:21.698Z,1010.4
2017-07-02T08:05:23.333Z,1010.4
2017-07-02T17:27:00.310Z,1012.9
2017-07-02T17:28:02.076Z,1013.0
2017-07-02T17:29:53.865Z,1012.9
2017-07-02T17:30:55.520Z,1012.9
2017-07-02T17:31:57.218Z,1012.9
2017-07-02T17:32:58.871Z,1013.0
2017-07-02T17:34:00.542Z,1013.1
2017-07-02T17:35:02.188Z,1013.0
2017-07-02T17:36:03.844Z,1013.0
2017-07-02T17:37:05.503Z,1013.0
2017-07-02T17:38:07.190Z,1012.9
2017-07-02T17:39:08.840Z,1012.9
2017-07-02T17:40:10.484Z,1013.0
2017-07-02T17:41:12.112Z,1013.0
2017-07-02T17:42:13.753Z,1012.9
2017-07-02T17:43:15.417Z,1012.9
2017-07-02T17:44:17.100Z,1013.0
2017-07-02T17:45:18.734Z,1013.0
2017-07-02T17:46:20.416Z,1013.0
2017-07-02T17:47:22.083Z,1013.0
2017-07-02T17:48:24.400Z,1013.0
2017-07-02T17:49:26.117Z,1013.1
2017-07-02T17:50:27.775Z,1013.0
2017-07-02T17:51:29.419Z,1013.0
2017-07-02T17:52:31.089Z,1013.1
2017-07-02T17:53:32.784Z,1013.1
2017-07-02T17:54:34.429Z,1013.1
2017-07-02T17:55:36.155Z,1013.1
2017-07-02T17:56:37.771Z,1013.1
2017-07-02T17:57:39.432Z,1013.1
2017-07-02T17:58:41.209Z,1013.1
2017-07-02T17:59:42.849Z,1013.0
2017-07-02T18:00:44.489Z,1013.1
2017-07-02T18:01:46.233Z,1013.0
2017-07-02T18:02:47.898Z,1013.1
2017-07-02T18:03:49.545Z,1013.1
2017-07-02T18:04:51.191Z,1013.1
2017-07-02T18:05:52.847Z,1013.1
2017-07-02T18:06:54.498Z,1013.1
2017-07-02T18:07:56.152Z,1013.1
2017-07-02T18:08:57.839Z,1013.2
2017-07-02T18:09:59.481Z,1013.1
2017-07-02T18:11:01.151Z,1013.1
2017-07-02T18:12:02.883Z,1013.1
2017-07-02T18:13:04.573Z,1013.1
2017-07-02T18:14:06.235Z,1013.1
2017-07-02T18:15:07.908Z,1013.1
2017-07-02T18:16:09.566Z,1013.1
2017-07-02T18:17:11.284Z,1013.1
2017-07-02T18:18:12.920Z,1013.1
2017-07-02T18:19:14.584Z,1013.2
2017-07-02T18:20:16.332Z,1013.2
2017-07-02T18:21:18.007Z,1013.1
2017-07-02T18:22:19.718Z,1013.1
2017-07-02T18:23:21.518Z,1013.2
2017-07-02T18:24:23.311Z,1013.2
2017-07-02T18:25:24.999Z,1013.2
2017-07-02T18:26:27.192Z,1013.2
2017-07-02T18:27:29.696Z,1013.2
2017-07-02T18:28:31.558Z,1013.2
2017-07-02T18:29:33.320Z,1013.2
2017-07-02T18:30:35.127Z,1013.3
2017-07-02T18:31:36.835Z,1013.3
2017-07-02T18:32:38.509Z,1013.2
2017-07-02T18:33:40.194Z,1013.2
2017-07-02T18:34:42.073Z,1013.3
2017-07-02T18:35:43.756Z,1013.2
2017-07-02T18:36:45.395Z,1013.2
2017-07-02T18:37:47.092Z,1013.3
2017-07-02T18:38:48.740Z,1013.3
2017-07-02T18:39:50.377Z,1013.3
2017-07-02T18:40:52.023Z,1013.3
2017-07-02T18:41:53.659Z,1013.3
2017-07-02T18:42:55.297Z,1013.4
2017-07-02T18:43:56.970Z,1013.3
2017-07-02T18:44:58.625Z,1013.3
2017-07-02T18:46:00.271Z,1013.3
2017-07-02T18:47:01.936Z,1013.4
2017-07-02T18:48:03.846Z,1013.5
2017-07-02T18:49:05.489Z,1013.5
2017-07-02T18:50:07.148Z,1013.4
2017-07-02T18:51:08.788Z,1013.4
2017-07-02T18:52:10.426Z,1013.4
2017-07-02T18:53:12.070Z,1013.5
2017-07-02T18:54:13.715Z,1013.5
2017-07-02T18:55:15.352Z,1013.5
2017-07-02T18:56:17.007Z,1013.5
2017-07-02T18:57:18.659Z,1013.5
2017-07-02T18:58:20.310Z,1013.5
2017-07-02T18:59:21.985Z,1013.5
2017-07-02T19:00:23.626Z,1013.5
2017-07-02T19:01:25.313Z,1013.5
2017-07-02T19:02:27.077Z,1013.5
2017-07-02T19:03:28.718Z,1013.6
2017-07-02T19:04:30.349Z,1013.6
2017-07-02T19:05:32.756Z,1013.6
2017-07-02T19:06:34.398Z,1013.7
2017-07-02T19:07:36.037Z,1013.7
2017-07-02T19:08:37.683Z,1013.6
2017-07-02T19:09:39.316Z,1013.7
2017-07-02T19:10:40.983Z,1013.7
2017-07-02T19:11:42.620Z,1013.7
2017-07-02T19:12:44.254Z,1013.7
2017-07-02T19:13:45.893Z,1013.7
2017-07-02T19:14:47.562Z,1013.7
2017-07-02T19:15:49.278Z,1013.7
2017-07-02T19:16:50.924Z,1013.7
2017-07-02T19:17:52.581Z,1013.7
2017-07-02T19:18:54.214Z,1013.7
2017-07-02T19:19:55.849Z,1013.8
2017-07-02T19:20:57.538Z,1013.8
2017-07-02T19:21:59.179Z,1013.8
2017-07-02T19:23:00.818Z,1013.8
2017-07-02T19:24:02.472Z,1013.9
2017-07-02T19:25:04.097Z,1013.9
2017-07-02T19:26:05.741Z,1013.9
2017-07-02T19:27:07.418Z,1013.9
2017-07-02T19:28:09.035Z,1013.9
2017-07-02T19:29:10.697Z,1014.0
2017-07-02T19:30:12.341Z,1014.0
2017-07-02T19:31:13.975Z,1013.9
2017-07-02T19:32:15.615Z,1014.0
2017-07-02T19:33:17.273Z,1014.0
2017-07-02T19:34:18.908Z,1014.0
2017-07-02T19:35:20.555Z,1014.0
2017-07-02T19:36:22.254Z,1014.1
2017-07-02T19:37:23.895Z,1014.1
2017-07-02T19:38:25.959Z,1014.1
2017-07-02T19:39:27.617Z,1014.1
2017-07-02T19:40:29.262Z,1014.1
2017-07-02T19:41:30.945Z,1014.1
2017-07-02T19:42:32.580Z,1014.1
2017-07-02T19:43:34.217Z,1014.1
2017-07-02T19:44:35.853Z,1014.1
2017-07-02T19:45:37.514Z,1014.1
2017-07-02T19:46:39.152Z,1014.1
2017-07-02T19:47:40.802Z,1014.1
2017-07-02T19:48:42.441Z,1014.1
2017-07-02T19:49:44.108Z,1014.1
2017-07-02T19:50:45.779Z,1014.2
2017-07-02T19:51:47.420Z,1014.2
2017-07-02T19:52:49.081Z,1014.2
2017-07-02T19:53:50.931Z,1014.2
2017-07-02T19:54:52.630Z,1014.2
2017-07-02T19:55:54.272Z,1014.3
2017-07-02T19:56:55.935Z,1014.3
2017-07-02T19:57:57.615Z,1014.3
2017-07-02T19:58:59.302Z,1014.3
2017-07-02T20:00:00.905Z,1014.3
2017-07-02T20:01:02.568Z,1014.4
2017-07-02T20:02:04.198Z,1014.4
2017-07-02T20:03:05.842Z,1014.4
2017-07-02T20:04:07.476Z,1014.4
2017-07-02T20:05:09.117Z,1014.4
2017-07-02T20:06:10.748Z,1014.4
2017-07-02T20:07:12.427Z,1014.5
2017-07-02T20:08:14.093Z,1014.5
2017-07-02T20:09:15.727Z,1014.4
2017-07-02T20:10:17.394Z,1014.5
2017-07-02T20:11:19.031Z,1014.5
2017-07-02T20:12:20.664Z,1014.5
2017-07-02T20:13:22.319Z,1014.5
2017-07-02T20:14:23.968Z,1014.6
2017-07-02T20:15:25.609Z,1014.5
2017-07-02T20:16:27.353Z,1014.6
2017-07-02T20:17:28.984Z,1014.6
2017-07-02T20:18:30.626Z,1014.7
2017-07-02T20:19:32.286Z,1014.6
2017-07-02T20:20:33.970Z,1014.6
2017-07-02T20:21:35.649Z,1014.6
2017-07-02T20:22:37.297Z,1014.5
2017-07-02T20:23:38.917Z,1014.6
2017-07-02T20:24:40.565Z,1014.6
2017-07-02T20:25:42.219Z,1014.6
2017-07-02T20:26:43.846Z,1014.6
2017-07-02T20:27:45.499Z,1014.7
2017-07-02T20:28:47.135Z,1014.7
2017-07-02T20:29:48.795Z,1014.7
2017-07-02T20:30:50.442Z,1014.7
2017-07-02T20:31:52.114Z,1014.7
2017-07-02T20:32:53.803Z,1014.7
2017-07-02T20:33:55.441Z,1014.8
2017-07-02T20:34:57.112Z,1014.7
2017-07-02T20:35:58.753Z,1014.7
2017-07-02T20:37:00.393Z,1014.8
2017-07-02T20:38:02.043Z,1014.7
2017-07-02T20:39:03.731Z,1014.8
2017-07-02T20:40:05.389Z,1014.8
2017-07-02T20:41:07.068Z,1014.8
2017-07-02T20:42:08.777Z,1014.8
2017-07-02T20:43:10.452Z,1014.8
2017-07-02T20:44:12.184Z,1014.8
2017-07-02T20:45:13.815Z,1014.8
2017-07-02T20:46:15.445Z,1014.8
2017-07-02T20:47:17.096Z,1014.8
2017-07-02T20:48:18.759Z,1014.8
2017-07-02T20:49:20.395Z,1014.8
2017-07-02T20:50:22.066Z,1014.9
2017-07-02T20:51:23.961Z,1014.9
2017-07-02T20:52:25.586Z,1014.8
2017-07-02T20:53:27.574Z,1014.8
2017-07-02T20:54:29.725Z,1014.9
2017-07-02T20:55:31.403Z,1014.9
2017-07-02T20:56:33.042Z,1014.9
2017-07-02T20:57:34.678Z,1014.9
2017-07-02T20:58:36.953Z,1014.9
2017-07-02T20:59:38.590Z,1015.0
2017-07-02T21:00:40.228Z,1015.0
2017-07-02T21:01:41.859Z,1015.0
2017-07-02T21:02:43.625Z,1014.9
2017-07-02T21:03:45.334Z,1014.9
2017-07-02T21:04:47.358Z,1014.9
2017-07-02T21:05:49.516Z,1014.9
2017-07-02T21:06:51.367Z,1015.0
2017-07-02T21:07:53.363Z,1015.0
2017-07-02T21:08:55.284Z,1015.0
2017-07-02T21:09:57.764Z,1015.0
2017-07-02T21:10:59.805Z,1014.9
2017-07-02T21:12:02.025Z,1014.9
2017-07-02T21:13:03.898Z,1014.9
2017-07-02T21:14:05.790Z,1015.0
2017-07-02T21:15:07.798Z,1015.0
2017-07-02T21:16:09.511Z,1015.0
2017-07-02T21:17:11.627Z,1015.0
2017-07-02T21:18:13.332Z,1015.0
2017-07-02T21:19:15.100Z,1015.0
2017-07-02T21:20:17.072Z,1015.0
2017-07-02T21:21:18.961Z,1015.0
2017-07-02T21:22:22.921Z,1015.0
2017-07-02T21:23:24.853Z,1015.0
2017-07-02T21:24:26.587Z,1015.0
2017-07-02T21:25:28.177Z,1015.0
2017-07-02T21:26:29.844Z,1015.0
2017-07-02T21:27:31.635Z,1015.0
2017-07-02T21:28:33.290Z,1015.0
2017-07-02T21:29:35.019Z,1015.0
2017-07-02T21:30:36.920Z,1015.0
2017-07-02T21:31:38.602Z,1015.1
2017-07-02T21:32:40.679Z,1015.1
2017-07-02T21:33:42.218Z,1015.2
2017-07-02T21:34:44.209Z,1015.2
2017-07-02T21:35:45.854Z,1015.2
2017-07-02T21:36:47.583Z,1015.2
2017-07-02T21:37:49.308Z,1015.2
2017-07-02T21:38:51.184Z,1015.2
2017-07-02T21:39:52.942Z,1015.3
2017-07-02T21:40:54.590Z,1015.3
2017-07-02T21:41:56.289Z,1015.3
2017-07-02T21:42:57.971Z,1015.3
2017-07-02T21:43:59.689Z,1015.3
2017-07-02T21:45:01.428Z,1015.3
2017-07-02T21:46:03.223Z,1015.3
2017-07-02T21:47:04.866Z,1015.3
2017-07-02T21:48:06.619Z,1015.3
2017-07-02T21:49:08.383Z,1015.3
2017-07-02T21:50:10.028Z,1015.3
2017-07-02T21:51:12.051Z,1015.3
2017-07-02T21:52:13.889Z,1015.3
2017-07-02T21:53:17.278Z,1015.3
2017-07-02T21:54:18.985Z,1015.3
2017-07-02T21:55:20.906Z,1015.3
2017-07-02T21:56:22.717Z,1015.4
2017-07-02T21:57:24.781Z,1015.3
2017-07-02T21:58:26.519Z,1015.3
2017-07-02T21:59:28.383Z,1015.4
2017-07-02T22:00:30.338Z,1015.4
2017-07-02T22:01:32.079Z,1015.4
2017-07-02T22:02:36.184Z,1015.4
2017-07-02T22:03:37.921Z,1015.4
2017-07-02T22:04:40.487Z,1015.4
2017-07-02T22:05:42.517Z,1015.4
2017-07-02T22:06:44.154Z,1015.4
2017-07-02T22:07:45.799Z,1015.4
2017-07-02T22:08:47.444Z,1015.4
2017-07-02T22:09:49.085Z,1015.4
2017-07-02T22:10:50.770Z,1015.4